sensor_id;sensor_type;location;lat;lon;timestamp;temperature;humidity
22224;DHT22;11281;52.194;21.006;2023-09-19T00:02:26;17.40;99.90
22224;DHT22;11281;52.194;21.006;2023-09-19T00:06:48;17.30;99.90
22224;DHT22;11281;52.194;21.006;2023-09-19T00:11:10;17.30;99.90
22224;DHT22;11281;52.194;21.006;2023-09-19T00:15:46;17.30;99.90
22224;DHT22;11281;52.194;21.006;2023-09-19T00:20:11;17.20;99.90
22224;DHT22;11281;52.194;21.006;2023-09-19T00:24:34;17.40;99.90
22224;DHT22;11281;52.194;21.006;2023-09-19T00:28:56;17.50;99.90
22224;DHT22;11281;52.194;21.006;2023-09-19T00:33:19;17.50;99.90
22224;DHT22;11281;52.194;21.006;2023-09-19T00:37:40;17.50;99.90
22224;DHT22;11281;52.194;21.006;2023-09-19T00:42:02;17.40;99.90
22224;DHT22;11281;52.194;21.006;2023-09-19T00:46:26;17.40;99.90
22224;DHT22;11281;52.194;21.006;2023-09-19T00:50:48;17.40;99.90
22224;DHT22;11281;52.194;21.006;2023-09-19T00:55:11;17.40;99.90
22224;DHT22;11281;52.194;21.006;2023-09-19T00:59:35;17.20;99.90
22224;DHT22;11281;52.194;21.006;2023-09-19T01:03:57;17.30;99.90
22224;DHT22;11281;52.194;21.006;2023-09-19T01:08:19;17.30;99.90
22224;DHT22;11281;52.194;21.006;2023-09-19T01:17:53;17.20;99.90
22224;DHT22;11281;52.194;21.006;2023-09-19T01:32:04;16.90;99.90
22224;DHT22;11281;52.194;21.006;2023-09-19T01:36:29;17.00;99.90
22224;DHT22;11281;52.194;21.006;2023-09-19T01:41:03;16.90;99.90
22224;DHT22;11281;52.194;21.006;2023-09-19T01:54:52;17.10;99.90
22224;DHT22;11281;52.194;21.006;2023-09-19T01:59:23;17.10;99.90
22224;DHT22;11281;52.194;21.006;2023-09-19T02:03:48;17.10;99.90
22224;DHT22;11281;52.194;21.006;2023-09-19T02:08:11;17.20;99.90
22224;DHT22;11281;52.194;21.006;2023-09-19T02:12:33;17.10;99.90
22224;DHT22;11281;52.194;21.006;2023-09-19T02:16:55;17.10;99.90
22224;DHT22;11281;52.194;21.006;2023-09-19T02:21:18;17.10;99.90
22224;DHT22;11281;52.194;21.006;2023-09-19T02:25:40;17.10;99.90
22224;DHT22;11281;52.194;21.006;2023-09-19T02:30:02;17.10;99.90
22224;DHT22;11281;52.194;21.006;2023-09-19T02:34:25;17.20;99.90
22224;DHT22;11281;52.194;21.006;2023-09-19T02:38:47;17.30;99.90
22224;DHT22;11281;52.194;21.006;2023-09-19T02:43:09;17.30;99.90
22224;DHT22;11281;52.194;21.006;2023-09-19T02:47:31;17.20;99.90
22224;DHT22;11281;52.194;21.006;2023-09-19T02:51:52;17.10;99.90
22224;DHT22;11281;52.194;21.006;2023-09-19T02:56:14;17.00;99.90
22224;DHT22;11281;52.194;21.006;2023-09-19T03:00:37;17.00;99.90
22224;DHT22;11281;52.194;21.006;2023-09-19T03:04:59;16.90;99.90
22224;DHT22;11281;52.194;21.006;2023-09-19T03:09:21;16.80;99.90
22224;DHT22;11281;52.194;21.006;2023-09-19T03:13:43;16.80;99.90
22224;DHT22;11281;52.194;21.006;2023-09-19T03:18:07;16.80;99.90
22224;DHT22;11281;52.194;21.006;2023-09-19T03:22:28;16.70;99.90
22224;DHT22;11281;52.194;21.006;2023-09-19T03:26:50;16.60;99.90
22224;DHT22;11281;52.194;21.006;2023-09-19T03:31:12;16.60;99.90
22224;DHT22;11281;52.194;21.006;2023-09-19T03:35:34;16.60;99.90
22224;DHT22;11281;52.194;21.006;2023-09-19T03:39:56;16.60;99.90
22224;DHT22;11281;52.194;21.006;2023-09-19T03:44:18;16.50;99.90
22224;DHT22;11281;52.194;21.006;2023-09-19T03:48:39;16.60;99.90
22224;DHT22;11281;52.194;21.006;2023-09-19T03:53:01;16.50;99.90
22224;DHT22;11281;52.194;21.006;2023-09-19T03:57:23;16.50;99.90
22224;DHT22;11281;52.194;21.006;2023-09-19T04:01:45;16.40;99.90
22224;DHT22;11281;52.194;21.006;2023-09-19T04:06:07;16.40;99.90
22224;DHT22;11281;52.194;21.006;2023-09-19T04:10:29;16.40;99.90
22224;DHT22;11281;52.194;21.006;2023-09-19T04:14:51;16.40;99.90
22224;DHT22;11281;52.194;21.006;2023-09-19T04:19:13;16.40;99.90
22224;DHT22;11281;52.194;21.006;2023-09-19T04:23:35;16.30;99.90
22224;DHT22;11281;52.194;21.006;2023-09-19T04:27:57;16.30;99.90
22224;DHT22;11281;52.194;21.006;2023-09-19T04:32:19;16.30;99.90
22224;DHT22;11281;52.194;21.006;2023-09-19T04:36:41;16.30;99.90
22224;DHT22;11281;52.194;21.006;2023-09-19T04:41:03;16.30;99.90
22224;DHT22;11281;52.194;21.006;2023-09-19T04:45:28;16.30;99.90
22224;DHT22;11281;52.194;21.006;2023-09-19T04:49:50;16.30;99.90
22224;DHT22;11281;52.194;21.006;2023-09-19T04:54:12;16.40;99.90
22224;DHT22;11281;52.194;21.006;2023-09-19T04:58:34;16.50;99.90
22224;DHT22;11281;52.194;21.006;2023-09-19T05:02:56;16.60;99.90
22224;DHT22;11281;52.194;21.006;2023-09-19T05:07:18;16.80;99.90
22224;DHT22;11281;52.194;21.006;2023-09-19T05:11:40;17.00;99.90
22224;DHT22;11281;52.194;21.006;2023-09-19T05:16:02;17.10;99.90
22224;DHT22;11281;52.194;21.006;2023-09-19T05:20:24;17.20;99.90
22224;DHT22;11281;52.194;21.006;2023-09-19T05:24:50;17.30;99.90
22224;DHT22;11281;52.194;21.006;2023-09-19T05:29:12;17.40;99.90
22224;DHT22;11281;52.194;21.006;2023-09-19T05:33:34;17.40;99.90
22224;DHT22;11281;52.194;21.006;2023-09-19T05:37:56;17.50;99.90
22224;DHT22;11281;52.194;21.006;2023-09-19T05:42:19;17.60;99.90
22224;DHT22;11281;52.194;21.006;2023-09-19T05:46:41;17.70;99.90
22224;DHT22;11281;52.194;21.006;2023-09-19T05:51:02;17.90;99.90
22224;DHT22;11281;52.194;21.006;2023-09-19T05:55:24;18.00;99.90
22224;DHT22;11281;52.194;21.006;2023-09-19T05:59:46;18.10;99.90
22224;DHT22;11281;52.194;21.006;2023-09-19T06:04:09;18.20;99.90
22224;DHT22;11281;52.194;21.006;2023-09-19T06:08:30;18.30;99.90
22224;DHT22;11281;52.194;21.006;2023-09-19T06:12:52;18.40;99.90
22224;DHT22;11281;52.194;21.006;2023-09-19T06:17:14;18.60;99.90
22224;DHT22;11281;52.194;21.006;2023-09-19T06:21:36;18.50;99.90
22224;DHT22;11281;52.194;21.006;2023-09-19T06:25:58;18.40;99.90
22224;DHT22;11281;52.194;21.006;2023-09-19T06:30:21;18.30;99.90
22224;DHT22;11281;52.194;21.006;2023-09-19T06:34:45;18.30;99.90
22224;DHT22;11281;52.194;21.006;2023-09-19T06:39:07;18.60;99.90
22224;DHT22;11281;52.194;21.006;2023-09-19T06:43:32;19.20;99.90
22224;DHT22;11281;52.194;21.006;2023-09-19T06:47:55;19.60;99.90
22224;DHT22;11281;52.194;21.006;2023-09-19T06:52:18;19.80;99.90
22224;DHT22;11281;52.194;21.006;2023-09-19T06:56:43;20.00;99.90
22224;DHT22;11281;52.194;21.006;2023-09-19T07:01:05;20.00;99.90
22224;DHT22;11281;52.194;21.006;2023-09-19T07:05:27;20.00;99.90
22224;DHT22;11281;52.194;21.006;2023-09-19T07:09:49;20.00;99.90
22224;DHT22;11281;52.194;21.006;2023-09-19T07:14:12;20.00;99.90
22224;DHT22;11281;52.194;21.006;2023-09-19T07:18:34;20.40;99.90
22224;DHT22;11281;52.194;21.006;2023-09-19T07:22:56;20.70;99.90
22224;DHT22;11281;52.194;21.006;2023-09-19T07:27:20;20.70;99.90
22224;DHT22;11281;52.194;21.006;2023-09-19T07:31:42;20.70;99.90
22224;DHT22;11281;52.194;21.006;2023-09-19T07:36:05;21.00;99.90
22224;DHT22;11281;52.194;21.006;2023-09-19T07:40:28;21.10;99.90
22224;DHT22;11281;52.194;21.006;2023-09-19T07:44:50;21.10;99.90
22224;DHT22;11281;52.194;21.006;2023-09-19T07:49:12;20.80;99.90
22224;DHT22;11281;52.194;21.006;2023-09-19T07:53:34;20.70;99.90
22224;DHT22;11281;52.194;21.006;2023-09-19T07:57:56;20.70;99.90
22224;DHT22;11281;52.194;21.006;2023-09-19T08:02:19;20.60;99.90
22224;DHT22;11281;52.194;21.006;2023-09-19T08:06:41;20.30;99.90
22224;DHT22;11281;52.194;21.006;2023-09-19T08:11:04;20.10;99.90
22224;DHT22;11281;52.194;21.006;2023-09-19T08:15:33;20.00;99.90
22224;DHT22;11281;52.194;21.006;2023-09-19T08:19:55;20.00;99.90
22224;DHT22;11281;52.194;21.006;2023-09-19T08:24:17;19.90;99.90
22224;DHT22;11281;52.194;21.006;2023-09-19T08:28:39;19.80;99.90
22224;DHT22;11281;52.194;21.006;2023-09-19T08:33:04;19.70;99.90
22224;DHT22;11281;52.194;21.006;2023-09-19T08:37:25;19.60;99.90
22224;DHT22;11281;52.194;21.006;2023-09-19T08:41:47;19.50;99.90
22224;DHT22;11281;52.194;21.006;2023-09-19T08:46:15;19.40;99.90
22224;DHT22;11281;52.194;21.006;2023-09-19T08:50:49;19.10;99.90
22224;DHT22;11281;52.194;21.006;2023-09-19T08:55:14;19.00;99.90
22224;DHT22;11281;52.194;21.006;2023-09-19T08:59:42;19.00;99.90
22224;DHT22;11281;52.194;21.006;2023-09-19T09:04:08;18.60;99.90
22224;DHT22;11281;52.194;21.006;2023-09-19T09:08:31;18.30;99.90
22224;DHT22;11281;52.194;21.006;2023-09-19T09:12:53;18.30;99.90
22224;DHT22;11281;52.194;21.006;2023-09-19T09:17:18;18.30;99.90
22224;DHT22;11281;52.194;21.006;2023-09-19T09:21:41;18.20;99.90
22224;DHT22;11281;52.194;21.006;2023-09-19T09:26:03;18.20;99.90
22224;DHT22;11281;52.194;21.006;2023-09-19T09:30:34;18.20;99.90
22224;DHT22;11281;52.194;21.006;2023-09-19T09:35:00;18.20;99.90
22224;DHT22;11281;52.194;21.006;2023-09-19T09:39:30;18.10;99.90
22224;DHT22;11281;52.194;21.006;2023-09-19T09:43:53;18.10;99.90
22224;DHT22;11281;52.194;21.006;2023-09-19T09:48:15;18.10;99.90
22224;DHT22;11281;52.194;21.006;2023-09-19T09:52:46;18.10;99.90
22224;DHT22;11281;52.194;21.006;2023-09-19T09:57:10;18.20;99.90
22224;DHT22;11281;52.194;21.006;2023-09-19T10:01:47;18.20;99.90
22224;DHT22;11281;52.194;21.006;2023-09-19T10:06:12;18.10;99.90
22224;DHT22;11281;52.194;21.006;2023-09-19T10:10:46;18.10;99.90
22224;DHT22;11281;52.194;21.006;2023-09-19T10:15:18;18.30;99.90
22224;DHT22;11281;52.194;21.006;2023-09-19T10:19:55;18.30;99.90
22224;DHT22;11281;52.194;21.006;2023-09-19T10:24:22;18.30;99.90
22224;DHT22;11281;52.194;21.006;2023-09-19T10:28:49;18.30;99.90
22224;DHT22;11281;52.194;21.006;2023-09-19T10:33:13;18.40;99.90
22224;DHT22;11281;52.194;21.006;2023-09-19T10:37:37;18.50;99.90
22224;DHT22;11281;52.194;21.006;2023-09-19T10:42:02;18.60;99.90
22224;DHT22;11281;52.194;21.006;2023-09-19T10:46:26;18.70;99.90
22224;DHT22;11281;52.194;21.006;2023-09-19T10:50:53;18.80;99.90
22224;DHT22;11281;52.194;21.006;2023-09-19T10:55:21;18.70;99.90
22224;DHT22;11281;52.194;21.006;2023-09-19T11:00:04;19.00;99.90
22224;DHT22;11281;52.194;21.006;2023-09-19T11:04:48;19.00;99.90
22224;DHT22;11281;52.194;21.006;2023-09-19T11:09:12;19.00;99.90
22224;DHT22;11281;52.194;21.006;2023-09-19T11:13:43;19.10;99.90
22224;DHT22;11281;52.194;21.006;2023-09-19T11:27:32;19.40;99.90
22224;DHT22;11281;52.194;21.006;2023-09-19T11:31:55;19.50;99.90
22224;DHT22;11281;52.194;21.006;2023-09-19T11:36:35;19.70;99.90
22224;DHT22;11281;52.194;21.006;2023-09-19T11:50:11;19.70;99.90
22224;DHT22;11281;52.194;21.006;2023-09-19T11:54:33;19.90;99.90
22224;DHT22;11281;52.194;21.006;2023-09-19T11:58:58;19.90;99.90
22224;DHT22;11281;52.194;21.006;2023-09-19T12:03:21;19.70;99.90
22224;DHT22;11281;52.194;21.006;2023-09-19T12:07:44;19.80;99.90
22224;DHT22;11281;52.194;21.006;2023-09-19T12:12:10;19.80;99.90
22224;DHT22;11281;52.194;21.006;2023-09-19T12:16:38;19.70;99.90
22224;DHT22;11281;52.194;21.006;2023-09-19T12:21:00;19.80;99.90
22224;DHT22;11281;52.194;21.006;2023-09-19T12:25:24;19.80;99.90
22224;DHT22;11281;52.194;21.006;2023-09-19T12:29:49;19.80;99.90
22224;DHT22;11281;52.194;21.006;2023-09-19T12:34:11;19.70;99.90
22224;DHT22;11281;52.194;21.006;2023-09-19T12:38:35;19.60;99.90
22224;DHT22;11281;52.194;21.006;2023-09-19T12:42:58;19.60;99.90
22224;DHT22;11281;52.194;21.006;2023-09-19T12:47:21;19.70;99.90
22224;DHT22;11281;52.194;21.006;2023-09-19T12:51:49;19.70;99.90
22224;DHT22;11281;52.194;21.006;2023-09-19T12:56:12;19.70;99.90
22224;DHT22;11281;52.194;21.006;2023-09-19T13:00:37;20.00;99.90
22224;DHT22;11281;52.194;21.006;2023-09-19T13:04:58;19.90;99.90
22224;DHT22;11281;52.194;21.006;2023-09-19T13:09:25;19.80;99.90
22224;DHT22;11281;52.194;21.006;2023-09-19T13:18:51;20.00;99.90
22224;DHT22;11281;52.194;21.006;2023-09-19T13:23:27;19.90;99.90
22224;DHT22;11281;52.194;21.006;2023-09-19T13:27:51;19.90;99.90
22224;DHT22;11281;52.194;21.006;2023-09-19T13:32:16;19.90;99.90
22224;DHT22;11281;52.194;21.006;2023-09-19T13:36:38;20.00;99.90
22224;DHT22;11281;52.194;21.006;2023-09-19T13:41:00;20.10;99.90
22224;DHT22;11281;52.194;21.006;2023-09-19T13:45:24;20.10;99.90
22224;DHT22;11281;52.194;21.006;2023-09-19T13:49:48;19.90;99.90
22224;DHT22;11281;52.194;21.006;2023-09-19T13:54:12;19.90;99.90
22224;DHT22;11281;52.194;21.006;2023-09-19T13:58:33;19.90;99.90
22224;DHT22;11281;52.194;21.006;2023-09-19T14:02:55;19.90;99.90
22224;DHT22;11281;52.194;21.006;2023-09-19T14:07:17;19.80;99.90
22224;DHT22;11281;52.194;21.006;2023-09-19T14:11:41;19.70;99.90
22224;DHT22;11281;52.194;21.006;2023-09-19T14:16:07;19.60;99.90
22224;DHT22;11281;52.194;21.006;2023-09-19T14:20:29;19.60;99.90
22224;DHT22;11281;52.194;21.006;2023-09-19T14:24:52;19.60;99.90
22224;DHT22;11281;52.194;21.006;2023-09-19T14:29:14;19.50;99.90
22224;DHT22;11281;52.194;21.006;2023-09-19T14:33:37;19.50;99.90
22224;DHT22;11281;52.194;21.006;2023-09-19T14:38:02;19.40;99.90
22224;DHT22;11281;52.194;21.006;2023-09-19T14:42:24;19.50;99.90
22224;DHT22;11281;52.194;21.006;2023-09-19T14:46:46;19.60;99.90
22224;DHT22;11281;52.194;21.006;2023-09-19T14:51:09;19.60;99.90
22224;DHT22;11281;52.194;21.006;2023-09-19T14:55:31;19.60;99.90
22224;DHT22;11281;52.194;21.006;2023-09-19T14:59:56;19.50;99.90
22224;DHT22;11281;52.194;21.006;2023-09-19T15:04:18;19.40;99.90
22224;DHT22;11281;52.194;21.006;2023-09-19T15:08:40;19.40;99.90
22224;DHT22;11281;52.194;21.006;2023-09-19T15:13:04;19.40;99.90
22224;DHT22;11281;52.194;21.006;2023-09-19T15:17:26;19.30;99.90
22224;DHT22;11281;52.194;21.006;2023-09-19T15:21:48;19.40;99.90
22224;DHT22;11281;52.194;21.006;2023-09-19T15:26:12;19.30;99.90
22224;DHT22;11281;52.194;21.006;2023-09-19T15:30:38;19.20;99.90
22224;DHT22;11281;52.194;21.006;2023-09-19T15:35:00;19.30;99.90
22224;DHT22;11281;52.194;21.006;2023-09-19T15:39:22;19.40;99.90
22224;DHT22;11281;52.194;21.006;2023-09-19T15:43:43;19.30;99.90
22224;DHT22;11281;52.194;21.006;2023-09-19T15:48:05;19.30;99.90
22224;DHT22;11281;52.194;21.006;2023-09-19T15:52:27;19.30;99.90
22224;DHT22;11281;52.194;21.006;2023-09-19T15:56:49;19.30;99.90
22224;DHT22;11281;52.194;21.006;2023-09-19T16:01:13;19.20;99.90
22224;DHT22;11281;52.194;21.006;2023-09-19T16:05:36;19.10;99.90
22224;DHT22;11281;52.194;21.006;2023-09-19T16:09:58;19.00;99.90
22224;DHT22;11281;52.194;21.006;2023-09-19T16:14:21;18.90;99.90
22224;DHT22;11281;52.194;21.006;2023-09-19T16:18:46;18.80;99.90
22224;DHT22;11281;52.194;21.006;2023-09-19T16:23:12;18.60;99.90
22224;DHT22;11281;52.194;21.006;2023-09-19T16:27:33;18.40;99.90
22224;DHT22;11281;52.194;21.006;2023-09-19T16:31:55;18.30;99.90
22224;DHT22;11281;52.194;21.006;2023-09-19T16:36:18;18.00;99.90
22224;DHT22;11281;52.194;21.006;2023-09-19T16:40:40;17.90;99.90
22224;DHT22;11281;52.194;21.006;2023-09-19T16:45:12;17.70;99.90
22224;DHT22;11281;52.194;21.006;2023-09-19T16:49:34;17.50;99.90
22224;DHT22;11281;52.194;21.006;2023-09-19T16:53:56;17.40;99.90
22224;DHT22;11281;52.194;21.006;2023-09-19T16:58:18;17.30;99.90
22224;DHT22;11281;52.194;21.006;2023-09-19T17:02:39;17.20;99.90
22224;DHT22;11281;52.194;21.006;2023-09-19T17:07:01;17.10;99.90
22224;DHT22;11281;52.194;21.006;2023-09-19T17:11:24;17.00;99.90
22224;DHT22;11281;52.194;21.006;2023-09-19T17:15:45;16.80;99.90
22224;DHT22;11281;52.194;21.006;2023-09-19T17:20:08;16.70;99.90
22224;DHT22;11281;52.194;21.006;2023-09-19T17:24:29;16.70;99.90
22224;DHT22;11281;52.194;21.006;2023-09-19T17:28:54;16.60;99.90
22224;DHT22;11281;52.194;21.006;2023-09-19T17:33:16;16.50;99.90
22224;DHT22;11281;52.194;21.006;2023-09-19T17:37:38;16.40;99.90
22224;DHT22;11281;52.194;21.006;2023-09-19T17:42:03;16.30;99.90
22224;DHT22;11281;52.194;21.006;2023-09-19T17:46:26;16.30;99.90
22224;DHT22;11281;52.194;21.006;2023-09-19T17:50:59;16.30;99.90
22224;DHT22;11281;52.194;21.006;2023-09-19T17:55:24;16.20;99.90
22224;DHT22;11281;52.194;21.006;2023-09-19T17:59:46;16.10;99.90
22224;DHT22;11281;52.194;21.006;2023-09-19T18:04:08;16.00;99.90
22224;DHT22;11281;52.194;21.006;2023-09-19T18:08:30;15.90;99.90
22224;DHT22;11281;52.194;21.006;2023-09-19T18:12:52;15.90;99.90
22224;DHT22;11281;52.194;21.006;2023-09-19T18:17:14;15.80;99.90
22224;DHT22;11281;52.194;21.006;2023-09-19T18:21:35;15.80;99.90
22224;DHT22;11281;52.194;21.006;2023-09-19T18:26:00;15.90;99.90
22224;DHT22;11281;52.194;21.006;2023-09-19T18:30:23;15.80;99.90
22224;DHT22;11281;52.194;21.006;2023-09-19T18:34:44;15.70;99.90
22224;DHT22;11281;52.194;21.006;2023-09-19T18:39:06;15.60;99.90
22224;DHT22;11281;52.194;21.006;2023-09-19T18:43:29;15.40;99.90
22224;DHT22;11281;52.194;21.006;2023-09-19T18:47:52;15.40;99.90
22224;DHT22;11281;52.194;21.006;2023-09-19T18:52:13;15.40;99.90
22224;DHT22;11281;52.194;21.006;2023-09-19T18:56:35;15.40;99.90
22224;DHT22;11281;52.194;21.006;2023-09-19T19:01:06;15.30;99.90
22224;DHT22;11281;52.194;21.006;2023-09-19T19:05:31;15.20;99.90
22224;DHT22;11281;52.194;21.006;2023-09-19T19:09:55;15.00;99.90
22224;DHT22;11281;52.194;21.006;2023-09-19T19:14:17;14.80;99.90
22224;DHT22;11281;52.194;21.006;2023-09-19T19:18:40;14.60;99.90
22224;DHT22;11281;52.194;21.006;2023-09-19T19:23:02;14.50;99.90
22224;DHT22;11281;52.194;21.006;2023-09-19T19:27:24;14.40;99.90
22224;DHT22;11281;52.194;21.006;2023-09-19T19:31:46;14.30;99.90
22224;DHT22;11281;52.194;21.006;2023-09-19T19:36:10;14.20;99.90
22224;DHT22;11281;52.194;21.006;2023-09-19T19:40:32;14.10;99.90
22224;DHT22;11281;52.194;21.006;2023-09-19T19:44:54;14.00;99.90
22224;DHT22;11281;52.194;21.006;2023-09-19T19:49:16;13.80;99.90
22224;DHT22;11281;52.194;21.006;2023-09-19T19:53:38;13.70;99.90
22224;DHT22;11281;52.194;21.006;2023-09-19T19:58:00;13.60;99.90
22224;DHT22;11281;52.194;21.006;2023-09-19T20:02:22;13.50;99.90
22224;DHT22;11281;52.194;21.006;2023-09-19T20:06:44;13.40;99.90
22224;DHT22;11281;52.194;21.006;2023-09-19T20:11:07;13.30;99.90
22224;DHT22;11281;52.194;21.006;2023-09-19T20:15:30;13.20;99.90
22224;DHT22;11281;52.194;21.006;2023-09-19T20:19:54;13.10;99.90
22224;DHT22;11281;52.194;21.006;2023-09-19T20:24:15;13.00;99.90
22224;DHT22;11281;52.194;21.006;2023-09-19T20:28:44;13.00;99.90
22224;DHT22;11281;52.194;21.006;2023-09-19T20:33:06;12.80;99.90
22224;DHT22;11281;52.194;21.006;2023-09-19T20:37:30;12.80;99.90
22224;DHT22;11281;52.194;21.006;2023-09-19T20:41:51;12.70;99.90
22224;DHT22;11281;52.194;21.006;2023-09-19T20:46:13;12.70;99.90
22224;DHT22;11281;52.194;21.006;2023-09-19T20:50:37;12.60;99.90
22224;DHT22;11281;52.194;21.006;2023-09-19T20:55:00;12.50;99.90
22224;DHT22;11281;52.194;21.006;2023-09-19T20:59:34;12.40;99.90
22224;DHT22;11281;52.194;21.006;2023-09-19T21:04:00;12.40;99.90
22224;DHT22;11281;52.194;21.006;2023-09-19T21:08:30;12.30;99.90
22224;DHT22;11281;52.194;21.006;2023-09-19T21:12:55;12.30;99.90
22224;DHT22;11281;52.194;21.006;2023-09-19T21:17:21;12.30;99.90
22224;DHT22;11281;52.194;21.006;2023-09-19T21:21:43;12.20;99.90
22224;DHT22;11281;52.194;21.006;2023-09-19T21:26:07;12.10;99.90
22224;DHT22;11281;52.194;21.006;2023-09-19T21:30:36;12.10;99.90
22224;DHT22;11281;52.194;21.006;2023-09-19T21:34:58;12.10;99.90
22224;DHT22;11281;52.194;21.006;2023-09-19T21:39:24;12.00;99.90
22224;DHT22;11281;52.194;21.006;2023-09-19T21:43:46;12.00;99.90
22224;DHT22;11281;52.194;21.006;2023-09-19T21:48:12;12.00;99.90
22224;DHT22;11281;52.194;21.006;2023-09-19T21:52:34;11.90;99.90
22224;DHT22;11281;52.194;21.006;2023-09-19T21:56:56;11.90;99.90
22224;DHT22;11281;52.194;21.006;2023-09-19T22:01:18;12.00;99.90
22224;DHT22;11281;52.194;21.006;2023-09-19T22:05:43;12.00;99.90
22224;DHT22;11281;52.194;21.006;2023-09-19T22:10:05;12.00;99.90
22224;DHT22;11281;52.194;21.006;2023-09-19T22:14:27;12.00;99.90
22224;DHT22;11281;52.194;21.006;2023-09-19T22:18:50;12.00;99.90
22224;DHT22;11281;52.194;21.006;2023-09-19T22:23:13;12.00;99.90
22224;DHT22;11281;52.194;21.006;2023-09-19T22:27:35;12.10;99.90
22224;DHT22;11281;52.194;21.006;2023-09-19T22:31:57;12.00;99.90
22224;DHT22;11281;52.194;21.006;2023-09-19T22:36:21;12.00;99.90
22224;DHT22;11281;52.194;21.006;2023-09-19T22:40:52;12.00;99.90
22224;DHT22;11281;52.194;21.006;2023-09-19T22:45:14;11.90;99.90
22224;DHT22;11281;52.194;21.006;2023-09-19T22:49:36;11.90;99.90
22224;DHT22;11281;52.194;21.006;2023-09-19T22:53:59;11.90;99.90
22224;DHT22;11281;52.194;21.006;2023-09-19T22:58:20;11.80;99.90
22224;DHT22;11281;52.194;21.006;2023-09-19T23:02:42;11.90;99.90
22224;DHT22;11281;52.194;21.006;2023-09-19T23:07:04;12.00;99.90
22224;DHT22;11281;52.194;21.006;2023-09-19T23:11:26;11.80;99.90
22224;DHT22;11281;52.194;21.006;2023-09-19T23:15:48;11.80;99.90
22224;DHT22;11281;52.194;21.006;2023-09-19T23:20:11;11.80;99.90
22224;DHT22;11281;52.194;21.006;2023-09-19T23:24:33;11.90;99.90
22224;DHT22;11281;52.194;21.006;2023-09-19T23:28:58;11.90;99.90
22224;DHT22;11281;52.194;21.006;2023-09-19T23:33:21;11.90;99.90
22224;DHT22;11281;52.194;21.006;2023-09-19T23:37:43;12.00;99.90
22224;DHT22;11281;52.194;21.006;2023-09-19T23:42:06;12.00;99.90
22224;DHT22;11281;52.194;21.006;2023-09-19T23:46:29;11.90;99.90
22224;DHT22;11281;52.194;21.006;2023-09-19T23:50:54;11.90;99.90
22224;DHT22;11281;52.194;21.006;2023-09-19T23:55:16;12.00;99.90
22224;DHT22;11281;52.194;21.006;2023-09-19T23:59:38;11.80;99.90
